createdAt,value
2023-03-30T00:00:41.000Z,0
2023-03-30T00:01:57.560Z,0
2023-03-30T00:03:13.846Z,0
2023-03-30T00:04:30.000Z,0
2023-03-30T00:05:46.435Z,0
2023-03-30T00:07:02.000Z,0
2023-03-30T00:08:19.000Z,0
2023-03-30T00:09:35.000Z,0
2023-03-30T00:10:51.000Z,0
2023-03-30T00:12:07.895Z,0
2023-03-30T00:13:24.202Z,0
2023-03-30T00:14:39.504Z,0
2023-03-30T00:15:55.000Z,0
2023-03-30T00:17:12.000Z,0
2023-03-30T00:18:28.000Z,0
2023-03-30T00:19:44.000Z,0
2023-03-30T00:21:00.000Z,0
2023-03-30T00:22:16.000Z,0
2023-03-30T00:23:32.582Z,0
2023-03-30T00:24:48.873Z,0
2023-03-30T00:26:05.163Z,0
2023-03-30T00:27:21.000Z,0
2023-03-30T00:28:37.000Z,0
2023-03-30T00:29:54.000Z,0
2023-03-30T00:31:10.000Z,0
2023-03-30T00:32:26.000Z,0
2023-03-30T00:33:42.924Z,0
2023-03-30T00:34:59.219Z,0
2023-03-30T00:36:15.515Z,0
2023-03-30T00:37:31.798Z,0
2023-03-30T00:38:47.000Z,0
2023-03-30T00:40:03.000Z,0
2023-03-30T00:41:19.000Z,0
2023-03-30T00:42:36.000Z,0
2023-03-30T00:43:52.285Z,0
2023-03-30T00:45:08.585Z,0
2023-03-30T00:46:24.878Z,0
2023-03-30T00:47:41.000Z,0
2023-03-30T00:48:57.469Z,0
2023-03-30T00:50:13.000Z,0
2023-03-30T00:51:30.000Z,0
2023-03-30T00:52:46.000Z,0
2023-03-30T00:54:02.631Z,0
2023-03-30T00:55:17.947Z,0
2023-03-30T00:56:34.247Z,0
2023-03-30T00:57:50.000Z,0
2023-03-30T00:59:06.000Z,0
2023-03-30T01:00:23.000Z,0
2023-03-30T01:01:39.000Z,0
2023-03-30T01:02:55.000Z,0
2023-03-30T01:04:12.000Z,0
2023-03-30T01:05:28.298Z,0
2023-03-30T01:06:44.604Z,0
2023-03-30T01:08:00.000Z,0
2023-03-30T01:09:17.000Z,0
2023-03-30T01:10:33.000Z,0
2023-03-30T01:11:48.785Z,0
2023-03-30T01:13:05.000Z,0
2023-03-30T01:14:21.000Z,0
2023-03-30T01:15:37.665Z,0
2023-03-30T01:16:53.957Z,0
2023-03-30T01:18:10.252Z,0
2023-03-30T01:19:26.000Z,0
2023-03-30T01:20:42.000Z,0
2023-03-30T01:21:59.000Z,0
2023-03-30T01:23:15.000Z,0
2023-03-30T01:24:31.724Z,0
2023-03-30T01:25:48.000Z,0
2023-03-30T01:27:04.295Z,0
2023-03-30T01:28:19.619Z,0
2023-03-30T01:29:35.000Z,0
2023-03-30T01:30:52.000Z,0
2023-03-30T01:32:08.000Z,0
2023-03-30T01:33:24.000Z,0
2023-03-30T01:34:41.000Z,0
2023-03-30T01:35:57.000Z,0
2023-03-30T01:37:13.000Z,0
2023-03-30T01:38:29.960Z,0
2023-03-30T01:39:46.257Z,0
2023-03-30T01:41:02.000Z,0
2023-03-30T01:42:18.000Z,0
2023-03-30T01:43:35.000Z,0
2023-03-30T01:44:50.460Z,0
2023-03-30T01:46:06.000Z,0
2023-03-30T01:47:23.000Z,0
2023-03-30T01:48:39.325Z,0
2023-03-30T01:49:55.630Z,0
2023-03-30T01:51:11.000Z,0
2023-03-30T01:52:28.000Z,0
2023-03-30T01:53:44.000Z,0
2023-03-30T01:55:00.000Z,0
2023-03-30T01:56:17.000Z,0
2023-03-30T01:57:33.000Z,0
2023-03-30T01:58:49.666Z,0
2023-03-30T02:00:05.963Z,0
2023-03-30T02:01:21.000Z,0
2023-03-30T02:02:37.000Z,0
2023-03-30T02:03:53.000Z,0
2023-03-30T02:05:10.000Z,0
2023-03-30T02:06:26.448Z,0
2023-03-30T02:07:42.000Z,0
2023-03-30T02:08:59.039Z,0
2023-03-30T02:10:15.331Z,0
2023-03-30T02:11:31.633Z,0
2023-03-30T02:12:47.000Z,0
2023-03-30T02:14:04.000Z,0
2023-03-30T02:15:20.000Z,0
2023-03-30T02:16:36.000Z,0
2023-03-30T02:17:52.000Z,0
2023-03-30T02:19:08.407Z,0
2023-03-30T02:20:24.696Z,0
2023-03-30T02:21:40.985Z,0
2023-03-30T02:22:57.000Z,0
2023-03-30T02:24:13.000Z,0
2023-03-30T02:25:29.000Z,0
2023-03-30T02:26:46.000Z,0
2023-03-30T02:28:02.000Z,0
2023-03-30T02:29:18.000Z,0
2023-03-30T02:30:35.054Z,0
2023-03-30T02:31:51.344Z,0
2023-03-30T02:33:07.000Z,0
2023-03-30T02:34:22.936Z,0
2023-03-30T02:35:39.000Z,0
2023-03-30T02:36:55.000Z,0
2023-03-30T02:38:11.000Z,0
2023-03-30T02:39:28.000Z,0
2023-03-30T02:40:44.000Z,0
2023-03-30T02:42:00.000Z,0
2023-03-30T02:43:16.993Z,0
2023-03-30T02:44:33.000Z,0
2023-03-30T02:45:49.577Z,0
2023-03-30T02:47:05.000Z,0
2023-03-30T02:48:22.000Z,0
2023-03-30T02:49:38.000Z,0
2023-03-30T02:50:54.000Z,0
2023-03-30T02:52:11.171Z,0
2023-03-30T02:53:27.474Z,0
2023-03-30T02:54:43.761Z,0
2023-03-30T02:56:00.000Z,0
2023-03-30T02:57:16.000Z,0
2023-03-30T02:58:32.000Z,0
2023-03-30T02:59:48.000Z,0
2023-03-30T03:01:05.000Z,0
2023-03-30T03:02:21.532Z,0
2023-03-30T03:03:37.814Z,0
2023-03-30T03:04:54.111Z,0
2023-03-30T03:06:10.000Z,0
2023-03-30T03:07:25.000Z,0
2023-03-30T03:08:42.000Z,0
2023-03-30T03:09:58.000Z,0
2023-03-30T03:11:14.000Z,0
2023-03-30T03:12:30.000Z,0
2023-03-30T03:13:47.180Z,0
2023-03-30T03:15:03.469Z,0
2023-03-30T03:16:19.000Z,0
2023-03-30T03:17:36.000Z,0
2023-03-30T03:18:52.347Z,0
2023-03-30T03:20:08.000Z,0
2023-03-30T03:21:24.936Z,0
2023-03-30T03:22:41.233Z,0
2023-03-30T03:23:56.539Z,0
2023-03-30T03:25:12.832Z,0
2023-03-30T03:26:29.124Z,0
2023-03-30T03:27:45.000Z,0
2023-03-30T03:29:01.711Z,0
2023-03-30T03:30:18.000Z,0
2023-03-30T03:31:34.301Z,0
2023-03-30T03:32:50.000Z,0
2023-03-30T03:34:06.883Z,0
2023-03-30T03:35:23.175Z,0
2023-03-30T03:36:39.000Z,0
2023-03-30T03:37:55.000Z,0
2023-03-30T03:39:12.000Z,0
2023-03-30T03:40:27.369Z,0
2023-03-30T03:41:43.000Z,0
2023-03-30T03:42:59.000Z,0
2023-03-30T03:44:16.262Z,0
2023-03-30T03:45:32.545Z,0
2023-03-30T03:46:48.850Z,0
2023-03-30T03:48:05.000Z,0
2023-03-30T03:49:21.000Z,0
2023-03-30T03:50:37.000Z,0
2023-03-30T03:51:54.000Z,0
2023-03-30T03:53:10.000Z,0
2023-03-30T03:54:26.596Z,0
2023-03-30T03:55:42.896Z,0
2023-03-30T03:56:58.216Z,0
2023-03-30T03:58:14.000Z,0
2023-03-30T03:59:30.000Z,0
2023-03-30T04:00:47.000Z,0
2023-03-30T04:02:03.000Z,0
2023-03-30T04:03:19.000Z,0
2023-03-30T04:04:35.966Z,0
2023-03-30T04:05:52.272Z,0
2023-03-30T04:07:08.000Z,0
2023-03-30T04:08:24.000Z,0
2023-03-30T04:09:41.000Z,0
2023-03-30T04:10:57.000Z,0
2023-03-30T04:12:13.000Z,0
2023-03-30T04:13:29.041Z,0
2023-03-30T04:14:45.347Z,0
2023-03-30T04:16:01.642Z,0
2023-03-30T04:17:17.936Z,0
2023-03-30T04:18:34.000Z,0
2023-03-30T04:19:50.000Z,0
2023-03-30T04:21:06.000Z,0
2023-03-30T04:22:23.000Z,0
2023-03-30T04:23:39.000Z,1
2023-03-30T04:24:55.000Z,0
2023-03-30T04:26:11.885Z,1
2023-03-30T04:27:28.119Z,1
2023-03-30T04:28:44.000Z,1
2023-03-30T04:29:59.000Z,0
2023-03-30T04:31:15.000Z,2
2023-03-30T04:32:32.000Z,1
2023-03-30T04:33:48.000Z,2
2023-03-30T04:35:04.000Z,2
2023-03-30T04:36:20.884Z,1
2023-03-30T04:37:36.136Z,4
2023-03-30T04:38:52.383Z,7
2023-03-30T04:40:08.000Z,10
2023-03-30T04:41:24.000Z,12
2023-03-30T04:42:41.000Z,14
2023-03-30T04:43:57.000Z,19
2023-03-30T04:45:13.000Z,18
2023-03-30T04:46:29.000Z,19
2023-03-30T04:47:46.052Z,22
2023-03-30T04:49:02.297Z,27
2023-03-30T04:50:18.000Z,35
2023-03-30T04:51:34.000Z,37
2023-03-30T04:52:51.010Z,44
2023-03-30T04:54:06.000Z,50
2023-03-30T04:55:22.517Z,55
2023-03-30T04:56:38.000Z,59
2023-03-30T04:57:55.000Z,61
2023-03-30T04:59:11.237Z,62
2023-03-30T05:00:27.467Z,59
2023-03-30T05:01:43.000Z,61
2023-03-30T05:02:59.945Z,57
2023-03-30T05:04:16.000Z,56
2023-03-30T05:05:32.000Z,59
2023-03-30T05:06:48.660Z,52
2023-03-30T05:08:04.000Z,82
2023-03-30T05:09:21.146Z,115
2023-03-30T05:10:37.379Z,144
2023-03-30T05:11:52.650Z,151
2023-03-30T05:13:08.000Z,150
2023-03-30T05:14:25.000Z,163
2023-03-30T05:15:41.000Z,171
2023-03-30T05:16:57.000Z,176
2023-03-30T05:18:13.836Z,180
2023-03-30T05:19:30.000Z,207
2023-03-30T05:20:46.322Z,250
2023-03-30T05:22:02.556Z,271
2023-03-30T05:23:18.000Z,255
2023-03-30T05:24:35.000Z,237
2023-03-30T05:25:51.275Z,289
2023-03-30T05:27:07.000Z,287
2023-03-30T05:28:22.000Z,298
2023-03-30T05:29:39.000Z,281
2023-03-30T05:30:55.000Z,250
2023-03-30T05:32:11.000Z,230
2023-03-30T05:33:27.725Z,242
2023-03-30T05:34:43.963Z,255
2023-03-30T05:36:00.000Z,278
2023-03-30T05:37:16.000Z,272
2023-03-30T05:38:32.000Z,238
2023-03-30T05:39:48.000Z,201
2023-03-30T05:41:05.159Z,184
2023-03-30T05:42:21.000Z,163
2023-03-30T05:43:37.652Z,184
2023-03-30T05:44:52.909Z,249
2023-03-30T05:46:09.150Z,336
2023-03-30T05:47:25.000Z,461
2023-03-30T05:48:41.625Z,480
2023-03-30T05:49:57.871Z,426
2023-03-30T05:51:14.000Z,351
2023-03-30T05:52:30.336Z,291
2023-03-30T05:53:46.584Z,241
2023-03-30T05:55:02.000Z,238
2023-03-30T05:56:19.058Z,242
2023-03-30T05:57:35.295Z,249
2023-03-30T05:58:51.532Z,344
2023-03-30T06:00:07.000Z,389
2023-03-30T06:01:23.000Z,396
2023-03-30T06:02:39.268Z,441
2023-03-30T06:03:55.515Z,494
2023-03-30T06:05:11.000Z,482
2023-03-30T06:06:28.000Z,488
2023-03-30T06:07:44.238Z,563
2023-03-30T06:09:00.469Z,579
2023-03-30T06:10:16.000Z,540
2023-03-30T06:11:32.946Z,521
2023-03-30T06:12:49.000Z,490
2023-03-30T06:14:05.000Z,449
2023-03-30T06:15:21.000Z,502
2023-03-30T06:16:37.902Z,618
2023-03-30T06:17:53.000Z,597
2023-03-30T06:19:09.000Z,532
2023-03-30T06:20:25.000Z,438
2023-03-30T06:21:41.881Z,464
2023-03-30T06:22:58.118Z,506
2023-03-30T06:24:14.000Z,574
2023-03-30T06:25:30.000Z,651
2023-03-30T06:26:46.832Z,765
2023-03-30T06:28:03.000Z,967
2023-03-30T06:29:19.000Z,1100
2023-03-30T06:30:35.000Z,1194
2023-03-30T06:31:51.792Z,1293
2023-03-30T06:33:08.045Z,1427
2023-03-30T06:34:23.307Z,1550
2023-03-30T06:35:39.000Z,1608
2023-03-30T06:36:55.000Z,1592
2023-03-30T06:38:12.000Z,1575
2023-03-30T06:39:28.000Z,1652
2023-03-30T06:40:44.000Z,1809
2023-03-30T06:42:00.000Z,1937
2023-03-30T06:43:16.978Z,2075
2023-03-30T06:44:33.203Z,2209
2023-03-30T06:45:49.000Z,2269
2023-03-30T06:47:05.683Z,2250
2023-03-30T06:48:21.000Z,2182
2023-03-30T06:49:38.168Z,2030
2023-03-30T06:50:53.000Z,1877
2023-03-30T06:52:09.000Z,1855
2023-03-30T06:53:25.896Z,1931
2023-03-30T06:54:42.143Z,1967
2023-03-30T06:55:58.000Z,2285
2023-03-30T06:57:14.000Z,2454
2023-03-30T06:58:30.000Z,2551
2023-03-30T06:59:47.000Z,2588
2023-03-30T07:01:03.000Z,2683
2023-03-30T07:02:19.000Z,2734
2023-03-30T07:03:35.000Z,2767
2023-03-30T07:04:52.054Z,2801
2023-03-30T07:06:08.303Z,2749
2023-03-30T07:07:23.542Z,2642
2023-03-30T07:08:39.803Z,2284
2023-03-30T07:09:56.000Z,2327
2023-03-30T07:11:12.000Z,2827
2023-03-30T07:12:28.517Z,2520
2023-03-30T07:13:44.000Z,2441
2023-03-30T07:15:00.980Z,2354
2023-03-30T07:16:17.226Z,2352
2023-03-30T07:17:33.473Z,2205
2023-03-30T07:18:49.000Z,2031
2023-03-30T07:20:05.949Z,2049
2023-03-30T07:21:22.000Z,2020
2023-03-30T07:22:38.000Z,2065
2023-03-30T07:23:53.000Z,1959
2023-03-30T07:25:09.000Z,1673
2023-03-30T07:26:26.000Z,1676
2023-03-30T07:27:42.392Z,1695
2023-03-30T07:28:58.000Z,1822
2023-03-30T07:30:14.000Z,1942
2023-03-30T07:31:31.000Z,1957
2023-03-30T07:32:47.000Z,1715
2023-03-30T07:34:03.000Z,2346
2023-03-30T07:35:19.840Z,2325
2023-03-30T07:36:36.000Z,2398
2023-03-30T07:37:52.312Z,2306
2023-03-30T07:39:08.563Z,2470
2023-03-30T07:40:23.817Z,2044
2023-03-30T07:41:40.000Z,1835
2023-03-30T07:42:56.281Z,1964
2023-03-30T07:44:12.000Z,2600
2023-03-30T07:45:28.774Z,2638
2023-03-30T07:46:45.012Z,2272
2023-03-30T07:48:01.250Z,2307
2023-03-30T07:49:17.480Z,2276
2023-03-30T07:50:33.719Z,1910
2023-03-30T07:51:49.000Z,2078
2023-03-30T07:53:06.000Z,1941
2023-03-30T07:54:22.000Z,1526
2023-03-30T07:55:38.000Z,1389
2023-03-30T07:56:53.000Z,1532
2023-03-30T07:58:10.000Z,1924
2023-03-30T07:59:26.415Z,2090
2023-03-30T08:00:42.658Z,2464
2023-03-30T08:01:58.900Z,3065
2023-03-30T08:03:15.146Z,3402
2023-03-30T08:04:31.000Z,3682
2023-03-30T08:05:47.610Z,3802
2023-03-30T08:07:03.000Z,3777
2023-03-30T08:08:20.000Z,3509
2023-03-30T08:09:36.000Z,3382
2023-03-30T08:10:52.568Z,3136
2023-03-30T08:12:08.819Z,2877
2023-03-30T08:13:24.071Z,2932
2023-03-30T08:14:40.000Z,2859
2023-03-30T08:15:56.000Z,3169
2023-03-30T08:17:12.000Z,3465
2023-03-30T08:18:29.000Z,3470
2023-03-30T08:19:45.274Z,3193
2023-03-30T08:21:01.000Z,2516
2023-03-30T08:22:17.756Z,1828
2023-03-30T08:23:33.984Z,1582
2023-03-30T08:24:50.000Z,1610
2023-03-30T08:26:06.000Z,1571
2023-03-30T08:27:22.703Z,1465
2023-03-30T08:28:38.000Z,1491
2023-03-30T08:29:54.000Z,1515
2023-03-30T08:31:10.000Z,1536
2023-03-30T08:32:26.681Z,1844
2023-03-30T08:33:42.917Z,1756
2023-03-30T08:34:59.169Z,1439
2023-03-30T08:36:15.409Z,1489
2023-03-30T08:37:31.000Z,1652
2023-03-30T08:38:47.000Z,1697
2023-03-30T08:40:04.000Z,1645
2023-03-30T08:41:20.000Z,1486
2023-03-30T08:42:36.000Z,1514
2023-03-30T08:43:52.843Z,1483
2023-03-30T08:45:09.075Z,1406
2023-03-30T08:46:24.343Z,1313
2023-03-30T08:47:40.000Z,1193
2023-03-30T08:48:56.815Z,1129
2023-03-30T08:50:13.000Z,1177
2023-03-30T08:51:29.000Z,1156
2023-03-30T08:52:44.000Z,1046
2023-03-30T08:54:00.000Z,1016
2023-03-30T08:55:17.000Z,1066
2023-03-30T08:56:33.286Z,1095
2023-03-30T08:57:49.528Z,1106
2023-03-30T08:59:05.773Z,1108
2023-03-30T09:00:22.000Z,1080
2023-03-30T09:01:38.000Z,1062
2023-03-30T09:02:54.000Z,1011
2023-03-30T09:04:10.000Z,934
2023-03-30T09:05:26.000Z,844
2023-03-30T09:06:43.000Z,772
2023-03-30T09:07:59.443Z,761
2023-03-30T09:09:14.684Z,806
2023-03-30T09:10:30.926Z,660
2023-03-30T09:11:47.000Z,554
2023-03-30T09:13:03.000Z,638
2023-03-30T09:14:19.000Z,666
2023-03-30T09:15:35.000Z,722
2023-03-30T09:16:52.000Z,672
2023-03-30T09:18:08.000Z,607
2023-03-30T09:19:24.603Z,741
2023-03-30T09:20:40.852Z,975
2023-03-30T09:21:57.090Z,1249
2023-03-30T09:23:13.000Z,1420
2023-03-30T09:24:29.000Z,1535
2023-03-30T09:25:44.000Z,1867
2023-03-30T09:27:01.000Z,1943
2023-03-30T09:28:17.000Z,1958
2023-03-30T09:29:33.551Z,1803
2023-03-30T09:30:49.000Z,1721
2023-03-30T09:32:06.000Z,1588
2023-03-30T09:33:22.274Z,1957
2023-03-30T09:34:38.000Z,2466
2023-03-30T09:35:54.000Z,2639
2023-03-30T09:37:11.000Z,2594
2023-03-30T09:38:27.000Z,2401
2023-03-30T09:39:43.000Z,2275
2023-03-30T09:40:59.000Z,2389
2023-03-30T09:42:14.000Z,2495
2023-03-30T09:43:31.191Z,2334
2023-03-30T09:44:47.435Z,1720
2023-03-30T09:46:03.000Z,1581
2023-03-30T09:47:19.000Z,1671
2023-03-30T09:48:36.000Z,1504
2023-03-30T09:49:52.000Z,1199
2023-03-30T09:51:08.000Z,1055
2023-03-30T09:52:24.872Z,1023
2023-03-30T09:53:41.000Z,1005
2023-03-30T09:54:57.354Z,1045
2023-03-30T09:56:13.592Z,1017
2023-03-30T09:57:29.000Z,1264
2023-03-30T09:58:45.000Z,2167
2023-03-30T10:00:01.332Z,2662
2023-03-30T10:01:17.000Z,2488
2023-03-30T10:02:33.000Z,2264
2023-03-30T10:03:50.000Z,2283
2023-03-30T10:05:06.277Z,2281
2023-03-30T10:06:22.530Z,2225
2023-03-30T10:07:38.776Z,2106
2023-03-30T10:08:55.000Z,2067
2023-03-30T10:10:11.000Z,2123
2023-03-30T10:11:27.000Z,2601
2023-03-30T10:12:43.737Z,2544
2023-03-30T10:13:59.968Z,2054
2023-03-30T10:15:15.000Z,2371
2023-03-30T10:16:31.452Z,2173
2023-03-30T10:17:47.704Z,2216
2023-03-30T10:19:03.000Z,2217
2023-03-30T10:20:20.000Z,1945
2023-03-30T10:21:36.000Z,1985
2023-03-30T10:22:52.661Z,2339
2023-03-30T10:24:08.000Z,2232
2023-03-30T10:25:25.000Z,1986
2023-03-30T10:26:41.000Z,2995
2023-03-30T10:27:57.612Z,3873
2023-03-30T10:29:13.853Z,4517
2023-03-30T10:30:30.105Z,4788
2023-03-30T10:31:45.000Z,4971
2023-03-30T10:33:01.000Z,4947
2023-03-30T10:34:17.000Z,5350
2023-03-30T10:35:34.000Z,5606
2023-03-30T10:36:50.000Z,5724
2023-03-30T10:38:06.555Z,5643
2023-03-30T10:39:22.794Z,5666
2023-03-30T10:40:39.022Z,5661
2023-03-30T10:41:55.000Z,5674
2023-03-30T10:43:11.000Z,5647
2023-03-30T10:44:27.000Z,5528
2023-03-30T10:45:44.000Z,5524
2023-03-30T10:47:00.000Z,5452
2023-03-30T10:48:15.000Z,5294
2023-03-30T10:49:31.000Z,5188
2023-03-30T10:50:47.947Z,4853
2023-03-30T10:52:04.204Z,4176
2023-03-30T10:53:20.000Z,3952
2023-03-30T10:54:36.000Z,4169
2023-03-30T10:55:52.000Z,4240
2023-03-30T10:57:09.000Z,3872
2023-03-30T10:58:25.000Z,3528
2023-03-30T10:59:41.000Z,3340
2023-03-30T11:00:57.884Z,3128
2023-03-30T11:02:14.000Z,2900
2023-03-30T11:03:30.000Z,2793
2023-03-30T11:04:45.000Z,2661
2023-03-30T11:06:01.848Z,2317
2023-03-30T11:07:18.000Z,2140
2023-03-30T11:08:34.000Z,2136
2023-03-30T11:09:50.000Z,2662
2023-03-30T11:11:06.000Z,3069
2023-03-30T11:12:23.038Z,3538
2023-03-30T11:13:39.287Z,4273
2023-03-30T11:14:55.000Z,4543
2023-03-30T11:16:11.000Z,4598
2023-03-30T11:17:28.000Z,4245
2023-03-30T11:18:44.000Z,3479
2023-03-30T11:20:00.000Z,3769
2023-03-30T11:21:15.000Z,3808
2023-03-30T11:22:31.000Z,3851
2023-03-30T11:23:48.000Z,3443
2023-03-30T11:25:04.445Z,4309
2023-03-30T11:26:20.693Z,5046
2023-03-30T11:27:36.000Z,5138
2023-03-30T11:28:53.000Z,4412
2023-03-30T11:30:09.000Z,5063
2023-03-30T11:31:25.648Z,3879
2023-03-30T11:32:41.000Z,3119
2023-03-30T11:33:58.000Z,4370
2023-03-30T11:35:14.371Z,5359
2023-03-30T11:36:30.607Z,4116
2023-03-30T11:37:45.861Z,4679
2023-03-30T11:39:02.000Z,4094
2023-03-30T11:40:18.000Z,4478
2023-03-30T11:41:34.000Z,4670
2023-03-30T11:42:50.815Z,4697
2023-03-30T11:44:07.000Z,4921
2023-03-30T11:45:23.000Z,5054
2023-03-30T11:46:39.000Z,4422
2023-03-30T11:47:55.000Z,3910
2023-03-30T11:49:12.013Z,3428
2023-03-30T11:50:28.000Z,3493
2023-03-30T11:51:44.000Z,5250
2023-03-30T11:53:00.000Z,4125
2023-03-30T11:54:15.982Z,2252
2023-03-30T11:55:32.000Z,2303
2023-03-30T11:56:48.000Z,3234
2023-03-30T11:58:04.711Z,3883
2023-03-30T11:59:20.947Z,3444
2023-03-30T12:00:37.193Z,5207
2023-03-30T12:01:53.000Z,6156
2023-03-30T12:03:09.000Z,5458
2023-03-30T12:04:25.000Z,4483
2023-03-30T12:05:42.000Z,5101
2023-03-30T12:06:58.383Z,4159
2023-03-30T12:08:14.000Z,4000
2023-03-30T12:09:30.851Z,3357
2023-03-30T12:10:46.133Z,3892
2023-03-30T12:12:02.355Z,6664
2023-03-30T12:13:18.596Z,7210
2023-03-30T12:14:34.000Z,5333
2023-03-30T12:15:51.000Z,3337
2023-03-30T12:17:07.000Z,3341
2023-03-30T12:18:23.000Z,4979
2023-03-30T12:19:39.000Z,4788
2023-03-30T12:20:56.027Z,4996
2023-03-30T12:22:12.273Z,5153
2023-03-30T12:23:28.000Z,4938
2023-03-30T12:24:44.000Z,5301
2023-03-30T12:26:01.000Z,4954
2023-03-30T12:27:16.000Z,4735
2023-03-30T12:28:32.000Z,5023
2023-03-30T12:29:48.000Z,5067
2023-03-30T12:31:04.000Z,5464
2023-03-30T12:32:21.206Z,5574
2023-03-30T12:33:37.000Z,4406
2023-03-30T12:34:53.000Z,5317
2023-03-30T12:36:09.000Z,4366
2023-03-30T12:37:26.000Z,4618
2023-03-30T12:38:42.000Z,3690
2023-03-30T12:39:58.000Z,2615
2023-03-30T12:41:14.000Z,1767
2023-03-30T12:42:31.103Z,2975
2023-03-30T12:43:46.385Z,5714
2023-03-30T12:45:02.613Z,6075
2023-03-30T12:46:18.000Z,6845
2023-03-30T12:47:35.000Z,6199
2023-03-30T12:48:51.000Z,6336
2023-03-30T12:50:07.000Z,5754
2023-03-30T12:51:23.000Z,5298
2023-03-30T12:52:40.040Z,3956
2023-03-30T12:53:56.281Z,5500
2023-03-30T12:55:12.517Z,8555
2023-03-30T12:56:28.000Z,6984
2023-03-30T12:57:45.007Z,5629
2023-03-30T12:59:01.000Z,4818
2023-03-30T13:00:16.000Z,4748
2023-03-30T13:01:32.000Z,4903
2023-03-30T13:02:48.000Z,4822
2023-03-30T13:04:05.220Z,4875
2023-03-30T13:05:21.437Z,5036
2023-03-30T13:06:37.699Z,5461
2023-03-30T13:07:52.951Z,5737
2023-03-30T13:09:09.182Z,5351
2023-03-30T13:10:25.415Z,5222
2023-03-30T13:11:41.000Z,6281
2023-03-30T13:12:57.000Z,5306
2023-03-30T13:14:14.000Z,4562
2023-03-30T13:15:30.000Z,3684
2023-03-30T13:16:46.000Z,3621
2023-03-30T13:18:02.850Z,3514
2023-03-30T13:19:19.116Z,3325
2023-03-30T13:20:35.000Z,3088
2023-03-30T13:21:51.000Z,2871
2023-03-30T13:23:07.000Z,3315
2023-03-30T13:24:23.000Z,2898
2023-03-30T13:25:39.327Z,2241
2023-03-30T13:26:55.000Z,2002
2023-03-30T13:28:11.787Z,2097
2023-03-30T13:29:28.029Z,1970
2023-03-30T13:30:44.273Z,2609
2023-03-30T13:32:00.000Z,2997
2023-03-30T13:33:16.737Z,3291
2023-03-30T13:34:33.000Z,2701
2023-03-30T13:35:49.234Z,2148
2023-03-30T13:37:05.000Z,1638
2023-03-30T13:38:21.705Z,1517
2023-03-30T13:39:37.934Z,1654
2023-03-30T13:40:53.198Z,2173
2023-03-30T13:42:09.447Z,2932
2023-03-30T13:43:25.000Z,2921
2023-03-30T13:44:41.000Z,3355
2023-03-30T13:45:58.176Z,4011
2023-03-30T13:47:14.000Z,4168
2023-03-30T13:48:30.634Z,4367
2023-03-30T13:49:46.000Z,4541
2023-03-30T13:51:03.114Z,4754
2023-03-30T13:52:19.358Z,4706
2023-03-30T13:53:35.602Z,4777
2023-03-30T13:54:51.000Z,4846
2023-03-30T13:56:08.000Z,4664
2023-03-30T13:57:23.000Z,4130
2023-03-30T13:58:39.000Z,4200
2023-03-30T13:59:55.000Z,4211
2023-03-30T14:01:12.065Z,4088
2023-03-30T14:02:28.000Z,4339
2023-03-30T14:03:44.519Z,4608
2023-03-30T14:05:00.756Z,4454
2023-03-30T14:06:17.000Z,4072
2023-03-30T14:07:33.000Z,3922
2023-03-30T14:08:49.474Z,3968
2023-03-30T14:10:05.000Z,4543
2023-03-30T14:11:21.000Z,4139
2023-03-30T14:12:38.184Z,4139
2023-03-30T14:13:53.447Z,4076
2023-03-30T14:15:09.699Z,3149
2023-03-30T14:16:25.922Z,2127
2023-03-30T14:17:42.000Z,1341
2023-03-30T14:18:58.415Z,712
2023-03-30T14:20:14.000Z,579
2023-03-30T14:21:30.000Z,547
2023-03-30T14:22:47.000Z,464
2023-03-30T14:24:03.370Z,373
2023-03-30T14:25:19.606Z,353
2023-03-30T14:26:35.833Z,351
2023-03-30T14:27:52.000Z,340
2023-03-30T14:29:08.000Z,521
2023-03-30T14:30:23.000Z,956
2023-03-30T14:31:39.000Z,1156
2023-03-30T14:32:56.000Z,776
2023-03-30T14:34:12.287Z,609
2023-03-30T14:35:28.000Z,1035
2023-03-30T14:36:44.772Z,998
2023-03-30T14:38:01.019Z,958
2023-03-30T14:39:17.247Z,1115
2023-03-30T14:40:33.000Z,1935
2023-03-30T14:41:49.000Z,1569
2023-03-30T14:43:05.000Z,1040
2023-03-30T14:44:22.000Z,681
2023-03-30T14:45:38.000Z,538
2023-03-30T14:46:53.702Z,442
2023-03-30T14:48:09.938Z,367
2023-03-30T14:49:26.185Z,386
2023-03-30T14:50:42.416Z,474
2023-03-30T14:51:58.656Z,512
2023-03-30T14:53:14.907Z,471
2023-03-30T14:54:31.000Z,428
2023-03-30T14:55:47.000Z,439
2023-03-30T14:57:03.000Z,442
2023-03-30T14:58:19.000Z,524
2023-03-30T14:59:36.000Z,553
2023-03-30T15:00:52.000Z,521
2023-03-30T15:02:08.576Z,445
2023-03-30T15:03:23.844Z,413
2023-03-30T15:04:40.075Z,442
2023-03-30T15:05:56.000Z,389
2023-03-30T15:07:12.000Z,327
2023-03-30T15:08:28.000Z,278
2023-03-30T15:09:45.032Z,183
2023-03-30T15:11:01.268Z,264
2023-03-30T15:12:17.000Z,427
2023-03-30T15:13:33.744Z,657
2023-03-30T15:14:50.003Z,891
2023-03-30T15:16:06.000Z,1142
2023-03-30T15:17:22.000Z,1329
2023-03-30T15:18:38.000Z,1495
2023-03-30T15:19:53.000Z,1604
2023-03-30T15:21:10.000Z,1601
2023-03-30T15:22:26.000Z,1565
2023-03-30T15:23:42.681Z,1491
2023-03-30T15:24:58.919Z,1404
2023-03-30T15:26:15.000Z,1324
2023-03-30T15:27:31.000Z,1266
2023-03-30T15:28:47.000Z,1255
2023-03-30T15:30:03.871Z,1241
2023-03-30T15:31:20.000Z,1280
2023-03-30T15:32:36.000Z,1409
2023-03-30T15:33:52.591Z,1559
2023-03-30T15:35:08.842Z,1686
2023-03-30T15:36:24.082Z,1792
2023-03-30T15:37:40.000Z,1925
2023-03-30T15:38:56.000Z,2053
2023-03-30T15:40:12.000Z,2182
2023-03-30T15:41:29.040Z,2275
2023-03-30T15:42:45.000Z,2342
2023-03-30T15:44:01.000Z,2353
2023-03-30T15:45:17.759Z,2313
2023-03-30T15:46:34.000Z,2281
2023-03-30T15:47:50.000Z,2260
2023-03-30T15:49:06.000Z,2221
2023-03-30T15:50:22.000Z,2227
2023-03-30T15:51:38.961Z,2234
2023-03-30T15:52:54.000Z,2207
2023-03-30T15:54:10.000Z,2145
2023-03-30T15:55:26.000Z,2063
2023-03-30T15:56:42.941Z,1970
2023-03-30T15:57:59.175Z,1905
2023-03-30T15:59:15.000Z,1859
2023-03-30T16:00:31.000Z,1820
2023-03-30T16:01:47.000Z,1787
2023-03-30T16:03:04.000Z,1770
2023-03-30T16:04:20.000Z,1766
2023-03-30T16:05:36.000Z,1758
2023-03-30T16:06:52.848Z,1751
2023-03-30T16:08:09.091Z,1721
2023-03-30T16:09:24.342Z,1717
2023-03-30T16:10:40.586Z,1717
2023-03-30T16:11:56.000Z,1740
2023-03-30T16:13:13.000Z,1753
2023-03-30T16:14:29.000Z,1778
2023-03-30T16:15:45.000Z,1836
2023-03-30T16:17:01.000Z,1893
2023-03-30T16:18:18.031Z,1937
2023-03-30T16:19:34.260Z,1934
2023-03-30T16:20:50.490Z,1939
2023-03-30T16:22:06.746Z,1888
2023-03-30T16:23:23.000Z,1681
2023-03-30T16:24:39.000Z,1701
2023-03-30T16:25:54.000Z,2100
2023-03-30T16:27:10.000Z,1407
2023-03-30T16:28:26.000Z,2932
2023-03-30T16:29:43.000Z,6709
2023-03-30T16:30:59.424Z,17339
2023-03-30T16:32:15.666Z,16351
2023-03-30T16:33:31.000Z,15060
2023-03-30T16:34:48.000Z,12329
2023-03-30T16:36:04.000Z,9523
2023-03-30T16:37:20.000Z,3394
2023-03-30T16:38:36.000Z,3390
2023-03-30T16:39:53.000Z,3484
2023-03-30T16:41:09.340Z,3574
2023-03-30T16:42:24.603Z,3422
2023-03-30T16:43:40.833Z,3365
2023-03-30T16:44:57.000Z,3204
2023-03-30T16:46:13.000Z,3085
2023-03-30T16:47:29.000Z,2928
2023-03-30T16:48:45.000Z,2800
2023-03-30T16:50:02.000Z,2671
2023-03-30T16:51:18.000Z,2571
2023-03-30T16:52:34.511Z,2467
2023-03-30T16:53:50.744Z,2354
2023-03-30T16:55:07.000Z,2247
2023-03-30T16:56:23.000Z,2168
2023-03-30T16:57:39.000Z,2103
2023-03-30T16:58:54.000Z,2034
2023-03-30T17:00:10.000Z,2002
2023-03-30T17:01:27.000Z,1972
2023-03-30T17:02:43.000Z,1861
2023-03-30T17:03:59.691Z,1708
2023-03-30T17:05:15.933Z,750
2023-03-30T17:06:32.167Z,3005
2023-03-30T17:07:48.000Z,1568
2023-03-30T17:09:04.000Z,1468
2023-03-30T17:10:20.000Z,1387
2023-03-30T17:11:37.000Z,1333
2023-03-30T17:12:53.000Z,1287
2023-03-30T17:14:09.609Z,1272
2023-03-30T17:15:24.849Z,1184
2023-03-30T17:16:41.106Z,1111
2023-03-30T17:17:57.000Z,1048
2023-03-30T17:19:13.000Z,975
2023-03-30T17:20:29.000Z,909
2023-03-30T17:21:46.000Z,849
2023-03-30T17:23:01.000Z,765
2023-03-30T17:24:17.000Z,707
2023-03-30T17:25:33.794Z,651
2023-03-30T17:26:50.050Z,606
2023-03-30T17:28:06.274Z,562
2023-03-30T17:29:22.530Z,510